sensor_id;sensor_type;location;lat;lon;timestamp;pressure;altitude;pressure_sealevel;temperature;humidity
78584;BME280;67880;46.082;18.234;2023-12-20T00:00:06;99720.41;;;4.38;100.00
78584;BME280;67880;46.082;18.234;2023-12-20T00:00:40;99726.38;;;4.41;100.00
78584;BME280;67880;46.082;18.234;2023-12-20T00:01:15;99716.84;;;4.39;100.00
78584;BME280;67880;46.082;18.234;2023-12-20T00:01:47;99712.44;;;4.38;100.00
78584;BME280;67880;46.082;18.234;2023-12-20T00:02:20;99715.00;;;4.39;100.00
78584;BME280;67880;46.082;18.234;2023-12-20T00:02:52;99718.38;;;4.41;100.00
78584;BME280;67880;46.082;18.234;2023-12-20T00:03:24;99715.00;;;4.39;100.00
78584;BME280;67880;46.082;18.234;2023-12-20T00:03:56;99705.94;;;4.42;100.00
78584;BME280;67880;46.082;18.234;2023-12-20T00:04:28;99716.56;;;4.42;100.00
78584;BME280;67880;46.082;18.234;2023-12-20T00:05:00;99721.66;;;4.45;100.00
78584;BME280;67880;46.082;18.234;2023-12-20T00:05:35;99717.53;;;4.41;100.00
78584;BME280;67880;46.082;18.234;2023-12-20T00:06:10;99705.94;;;4.42;100.00
78584;BME280;67880;46.082;18.234;2023-12-20T00:06:42;99713.78;;;4.43;100.00
78584;BME280;67880;46.082;18.234;2023-12-20T00:07:15;99706.78;;;4.42;100.00
78584;BME280;67880;46.082;18.234;2023-12-20T00:07:48;99711.03;;;4.45;100.00
78584;BME280;67880;46.082;18.234;2023-12-20T00:08:20;99705.94;;;4.42;100.00
78584;BME280;67880;46.082;18.234;2023-12-20T00:08:52;99708.59;;;4.42;100.00
78584;BME280;67880;46.082;18.234;2023-12-20T00:09:25;99707.41;;;4.46;100.00
78584;BME280;67880;46.082;18.234;2023-12-20T00:09:57;99707.41;;;4.46;100.00
78584;BME280;67880;46.082;18.234;2023-12-20T00:10:29;99700.03;;;4.49;100.00
78584;BME280;67880;46.082;18.234;2023-12-20T00:11:01;99698.59;;;4.45;100.00
78584;BME280;67880;46.082;18.234;2023-12-20T00:11:34;99695.81;;;4.47;100.00
78584;BME280;67880;46.082;18.234;2023-12-20T00:12:06;99702.94;;;4.46;100.00
78584;BME280;67880;46.082;18.234;2023-12-20T00:12:38;99695.81;;;4.47;100.00
78584;BME280;67880;46.082;18.234;2023-12-20T00:13:12;99708.25;;;4.46;100.00
78584;BME280;67880;46.082;18.234;2023-12-20T00:13:47;99694.97;;;4.46;100.00
78584;BME280;67880;46.082;18.234;2023-12-20T00:14:22;99690.50;;;4.47;100.00
78584;BME280;67880;46.082;18.234;2023-12-20T00:14:54;99690.38;;;4.48;100.00
78584;BME280;67880;46.082;18.234;2023-12-20T00:15:26;99689.53;;;4.48;100.00
78584;BME280;67880;46.082;18.234;2023-12-20T00:15:58;99689.38;;;4.49;100.00
78584;BME280;67880;46.082;18.234;2023-12-20T00:16:31;99691.97;;;4.51;100.00
78584;BME280;67880;46.082;18.234;2023-12-20T00:17:03;99693.75;;;4.50;100.00
78584;BME280;67880;46.082;18.234;2023-12-20T00:17:36;99684.06;;;4.49;100.00
78584;BME280;67880;46.082;18.234;2023-12-20T00:18:08;99685.03;;;4.48;100.00
78584;BME280;67880;46.082;18.234;2023-12-20T00:18:40;99691.09;;;4.50;100.00
78584;BME280;67880;46.082;18.234;2023-12-20T00:19:12;99684.19;;;4.48;100.00
78584;BME280;67880;46.082;18.234;2023-12-20T00:19:45;99687.56;;;4.50;100.00
78584;BME280;67880;46.082;18.234;2023-12-20T00:20:17;99693.75;;;4.50;100.00
78584;BME280;67880;46.082;18.234;2023-12-20T00:20:49;99682.38;;;4.48;100.00
78584;BME280;67880;46.082;18.234;2023-12-20T00:21:21;99686.88;;;4.48;100.00
78584;BME280;67880;46.082;18.234;2023-12-20T00:21:54;99681.53;;;4.48;100.00
78584;BME280;67880;46.082;18.234;2023-12-20T00:22:29;99678.03;;;4.47;100.00
78584;BME280;67880;46.082;18.234;2023-12-20T00:23:01;99685.03;;;4.48;100.00
78584;BME280;67880;46.082;18.234;2023-12-20T00:23:34;99677.31;;;4.45;100.00
78584;BME280;67880;46.082;18.234;2023-12-20T00:24:06;99675.59;;;4.44;100.00
78584;BME280;67880;46.082;18.234;2023-12-20T00:24:38;99679.38;;;4.42;100.00
78584;BME280;67880;46.082;18.234;2023-12-20T00:25:10;99679.50;;;4.40;100.00
78584;BME280;67880;46.082;18.234;2023-12-20T00:25:42;99683.97;;;4.40;100.00
78584;BME280;67880;46.082;18.234;2023-12-20T00:26:17;99670.31;;;4.33;100.00
78584;BME280;67880;46.082;18.234;2023-12-20T00:26:49;99672.00;;;4.34;100.00
78584;BME280;67880;46.082;18.234;2023-12-20T00:27:21;99675.72;;;4.31;100.00
78584;BME280;67880;46.082;18.234;2023-12-20T00:27:53;99675.72;;;4.31;100.00
78584;BME280;67880;46.082;18.234;2023-12-20T00:28:25;99673.19;;;4.30;100.00
78584;BME280;67880;46.082;18.234;2023-12-20T00:28:57;99669.69;;;4.29;100.00
78584;BME280;67880;46.082;18.234;2023-12-20T00:29:35;99684.66;;;4.30;100.00
78584;BME280;67880;46.082;18.234;2023-12-20T00:30:08;99680.31;;;4.29;100.00
78584;BME280;67880;46.082;18.234;2023-12-20T00:30:40;99665.59;;;4.25;100.00
78584;BME280;67880;46.082;18.234;2023-12-20T00:31:13;99676.22;;;4.25;100.00
78584;BME280;67880;46.082;18.234;2023-12-20T00:31:45;99670.78;;;4.27;100.00
78584;BME280;67880;46.082;18.234;2023-12-20T00:32:18;99668.72;;;4.30;100.00
78584;BME280;67880;46.082;18.234;2023-12-20T00:32:53;99673.81;;;4.33;100.00
78584;BME280;67880;46.082;18.234;2023-12-20T00:33:25;99668.72;;;4.30;100.00
78584;BME280;67880;46.082;18.234;2023-12-20T00:33:58;99669.34;;;4.34;100.00
78584;BME280;67880;46.082;18.234;2023-12-20T00:34:30;99664.03;;;4.34;100.00
78584;BME280;67880;46.082;18.234;2023-12-20T00:35:02;99674.66;;;4.34;100.00
78584;BME280;67880;46.082;18.234;2023-12-20T00:35:34;99658.94;;;4.31;100.00
78584;BME280;67880;46.082;18.234;2023-12-20T00:36:06;99658.09;;;4.30;100.00
78584;BME280;67880;46.082;18.234;2023-12-20T00:36:39;99664.88;;;4.34;100.00
78584;BME280;67880;46.082;18.234;2023-12-20T00:37:11;99660.16;;;4.27;100.00
78584;BME280;67880;46.082;18.234;2023-12-20T00:37:43;99659.19;;;4.28;100.00
78584;BME280;67880;46.082;18.234;2023-12-20T00:38:16;99661.59;;;4.31;100.00
78584;BME280;67880;46.082;18.234;2023-12-20T00:38:48;99654.97;;;4.25;100.00
78584;BME280;67880;46.082;18.234;2023-12-20T00:39:21;99654.09;;;4.25;100.00
78584;BME280;67880;46.082;18.234;2023-12-20T00:39:53;99654.09;;;4.25;100.00
78584;BME280;67880;46.082;18.234;2023-12-20T00:40:25;99651.22;;;4.28;100.00
78584;BME280;67880;46.082;18.234;2023-12-20T00:40:57;99656.66;;;4.26;100.00
78584;BME280;67880;46.082;18.234;2023-12-20T00:41:30;99656.53;;;4.28;100.00
78584;BME280;67880;46.082;18.234;2023-12-20T00:42:02;99653.16;;;4.26;100.00
78584;BME280;67880;46.082;18.234;2023-12-20T00:42:34;99655.06;;;4.24;100.00
78584;BME280;67880;46.082;18.234;2023-12-20T00:43:07;99643.72;;;4.22;100.00
78584;BME280;67880;46.082;18.234;2023-12-20T00:43:39;99650.59;;;4.24;100.00
78584;BME280;67880;46.082;18.234;2023-12-20T00:44:11;99653.16;;;4.26;100.00
78584;BME280;67880;46.082;18.234;2023-12-20T00:44:43;99646.38;;;4.22;100.00
78584;BME280;67880;46.082;18.234;2023-12-20T00:45:15;99655.06;;;4.24;100.00
78584;BME280;67880;46.082;18.234;2023-12-20T00:45:48;99646.88;;;4.27;100.00
78584;BME280;67880;46.082;18.234;2023-12-20T00:46:20;99649.53;;;4.27;100.00
78584;BME280;67880;46.082;18.234;2023-12-20T00:46:52;99646.13;;;4.25;100.00
78584;BME280;67880;46.082;18.234;2023-12-20T00:47:24;99647.72;;;4.27;100.00
78584;BME280;67880;46.082;18.234;2023-12-20T00:47:56;99642.53;;;4.26;100.00
78584;BME280;67880;46.082;18.234;2023-12-20T00:48:31;99642.53;;;4.26;100.00
78584;BME280;67880;46.082;18.234;2023-12-20T00:49:06;99637.44;;;4.23;100.00
78584;BME280;67880;46.082;18.234;2023-12-20T00:49:39;99641.19;;;4.20;100.00
78584;BME280;67880;46.082;18.234;2023-12-20T00:50:11;99639.97;;;4.24;100.00
78584;BME280;67880;46.082;18.234;2023-12-20T00:50:46;99638.28;;;4.23;100.00
78584;BME280;67880;46.082;18.234;2023-12-20T00:51:18;99633.34;;;4.19;100.00
78584;BME280;67880;46.082;18.234;2023-12-20T00:51:53;99632.38;;;4.20;100.00
78584;BME280;67880;46.082;18.234;2023-12-20T00:52:25;99636.84;;;4.19;100.00
78584;BME280;67880;46.082;18.234;2023-12-20T00:52:57;99635.13;;;4.18;100.00
78584;BME280;67880;46.082;18.234;2023-12-20T00:53:30;99629.94;;;4.17;100.00
78584;BME280;67880;46.082;18.234;2023-12-20T00:54:02;99633.22;;;4.20;100.00
78584;BME280;67880;46.082;18.234;2023-12-20T00:54:34;99625.25;;;4.20;100.00
78584;BME280;67880;46.082;18.234;2023-12-20T00:55:10;99629.72;;;4.20;100.00
78584;BME280;67880;46.082;18.234;2023-12-20T00:55:42;99626.09;;;4.21;100.00
78584;BME280;67880;46.082;18.234;2023-12-20T00:56:16;99624.28;;;4.21;100.00
78584;BME280;67880;46.082;18.234;2023-12-20T00:56:48;99628.41;;;4.25;100.00
78584;BME280;67880;46.082;18.234;2023-12-20T00:57:20;99618.84;;;4.23;100.00
78584;BME280;67880;46.082;18.234;2023-12-20T00:57:52;99619.69;;;4.23;100.00
78584;BME280;67880;46.082;18.234;2023-12-20T00:58:28;99620.66;;;4.22;100.00
78584;BME280;67880;46.082;18.234;2023-12-20T00:59:00;99619.81;;;4.22;100.00
78584;BME280;67880;46.082;18.234;2023-12-20T00:59:32;99629.47;;;4.23;100.00
78584;BME280;67880;46.082;18.234;2023-12-20T01:00:05;99624.16;;;4.23;100.00
78584;BME280;67880;46.082;18.234;2023-12-20T01:00:37;99615.47;;;4.21;100.00
78584;BME280;67880;46.082;18.234;2023-12-20T01:01:13;99621.00;;;4.18;100.00
78584;BME280;67880;46.082;18.234;2023-12-20T01:01:45;99620.91;;;4.19;100.00
78584;BME280;67880;46.082;18.234;2023-12-20T01:02:19;99626.31;;;4.18;100.00
78584;BME280;67880;46.082;18.234;2023-12-20T01:02:51;99626.22;;;4.19;100.00
78584;BME280;67880;46.082;18.234;2023-12-20T01:03:23;99628.03;;;4.19;100.00
78584;BME280;67880;46.082;18.234;2023-12-20T01:03:58;99624.97;;;4.12;100.00
78584;BME280;67880;46.082;18.234;2023-12-20T01:04:30;99616.28;;;4.10;100.00
78584;BME280;67880;46.082;18.234;2023-12-20T01:05:05;99618.94;;;4.10;100.00
78584;BME280;67880;46.082;18.234;2023-12-20T01:05:41;99617.97;;;4.11;100.00
78584;BME280;67880;46.082;18.234;2023-12-20T01:06:13;99616.41;;;4.08;100.00
78584;BME280;67880;46.082;18.234;2023-12-20T01:06:48;99616.41;;;4.08;100.00
78584;BME280;67880;46.082;18.234;2023-12-20T01:07:26;99617.38;;;4.07;100.00
78584;BME280;67880;46.082;18.234;2023-12-20T01:07:59;99615.69;;;4.06;100.00
78584;BME280;67880;46.082;18.234;2023-12-20T01:08:33;99610.59;;;4.03;100.00
78584;BME280;67880;46.082;18.234;2023-12-20T01:09:06;99618.44;;;4.05;100.00
78584;BME280;67880;46.082;18.234;2023-12-20T01:09:41;99614.22;;;4.02;100.00
78584;BME280;67880;46.082;18.234;2023-12-20T01:10:13;99614.22;;;4.02;100.00
78584;BME280;67880;46.082;18.234;2023-12-20T01:10:48;99603.72;;;4.01;100.00
78584;BME280;67880;46.082;18.234;2023-12-20T01:11:23;99612.66;;;4.00;100.00
78584;BME280;67880;46.082;18.234;2023-12-20T01:11:55;99610.00;;;4.00;100.00
78584;BME280;67880;46.082;18.234;2023-12-20T01:12:28;99607.34;;;4.00;100.00
78584;BME280;67880;46.082;18.234;2023-12-20T01:13:00;99608.41;;;3.97;100.00
78584;BME280;67880;46.082;18.234;2023-12-20T01:13:32;99600.31;;;3.99;100.00
78584;BME280;67880;46.082;18.234;2023-12-20T01:14:07;99610.94;;;3.99;100.00
78584;BME280;67880;46.082;18.234;2023-12-20T01:14:42;99608.41;;;3.97;100.00
78584;BME280;67880;46.082;18.234;2023-12-20T01:15:14;99600.59;;;3.96;100.00
78584;BME280;67880;46.082;18.234;2023-12-20T01:15:50;99607.56;;;3.97;100.00
78584;BME280;67880;46.082;18.234;2023-12-20T01:16:25;99606.25;;;3.91;100.00
78584;BME280;67880;46.082;18.234;2023-12-20T01:17:02;99611.44;;;3.93;100.00
78584;BME280;67880;46.082;18.234;2023-12-20T01:17:40;99596.72;;;3.89;100.00
78584;BME280;67880;46.082;18.234;2023-12-20T01:18:15;99600.94;;;3.91;100.00
78584;BME280;67880;46.082;18.234;2023-12-20T01:18:47;99606.13;;;3.93;100.00
78584;BME280;67880;46.082;18.234;2023-12-20T01:19:22;99601.78;;;3.92;100.00
78584;BME280;67880;46.082;18.234;2023-12-20T01:19:56;99601.56;;;3.95;100.00
78584;BME280;67880;46.082;18.234;2023-12-20T01:21:03;99601.91;;;3.90;100.00
78584;BME280;67880;46.082;18.234;2023-12-20T01:21:39;99602.03;;;3.89;100.00
78584;BME280;67880;46.082;18.234;2023-12-20T01:22:15;99606.13;;;3.93;100.00
78584;BME280;67880;46.082;18.234;2023-12-20T01:22:49;99609.41;;;3.96;100.00
78584;BME280;67880;46.082;18.234;2023-12-20T01:23:22;99598.16;;;3.93;100.00
78584;BME280;67880;46.082;18.234;2023-12-20T01:23:54;99606.13;;;3.93;100.00
78584;BME280;67880;46.082;18.234;2023-12-20T01:24:59;99599.13;;;3.92;100.00
78584;BME280;67880;46.082;18.234;2023-12-20T01:25:31;99603.47;;;3.93;100.00
78584;BME280;67880;46.082;18.234;2023-12-20T01:26:03;99595.50;;;3.93;100.00
78584;BME280;67880;46.082;18.234;2023-12-20T01:26:37;99595.75;;;3.90;100.00
78584;BME280;67880;46.082;18.234;2023-12-20T01:27:12;99596.72;;;3.89;100.00
78584;BME280;67880;46.082;18.234;2023-12-20T01:27:47;99597.56;;;3.89;100.00
78584;BME280;67880;46.082;18.234;2023-12-20T01:28:19;99588.63;;;3.90;100.00
78584;BME280;67880;46.082;18.234;2023-12-20T01:28:51;99593.72;;;3.93;100.00
78584;BME280;67880;46.082;18.234;2023-12-20T01:29:24;99596.13;;;3.96;100.00
78584;BME280;67880;46.082;18.234;2023-12-20T01:30:29;99584.78;;;3.94;100.00
78584;BME280;67880;46.082;18.234;2023-12-20T01:31:04;99591.66;;;3.97;100.00
78584;BME280;67880;46.082;18.234;2023-12-20T01:31:37;99589.00;;;3.97;100.00
78584;BME280;67880;46.082;18.234;2023-12-20T01:32:09;99587.06;;;3.99;100.00
78584;BME280;67880;46.082;18.234;2023-12-20T01:32:41;99584.66;;;3.96;100.00
78584;BME280;67880;46.082;18.234;2023-12-20T01:33:41;99585.38;;;3.98;100.00
78584;BME280;67880;46.082;18.234;2023-12-20T01:34:13;99580.06;;;3.98;100.00
78584;BME280;67880;46.082;18.234;2023-12-20T01:35:19;99582.13;;;3.94;100.00
78584;BME280;67880;46.082;18.234;2023-12-20T01:35:51;99584.03;;;3.92;100.00
78584;BME280;67880;46.082;18.234;2023-12-20T01:36:26;99581.28;;;3.94;100.00
78584;BME280;67880;46.082;18.234;2023-12-20T01:37:00;99576.56;;;3.97;100.00
78584;BME280;67880;46.082;18.234;2023-12-20T01:37:33;99574.88;;;3.96;100.00
78584;BME280;67880;46.082;18.234;2023-12-20T01:38:11;99573.19;;;3.95;100.00
78584;BME280;67880;46.082;18.234;2023-12-20T01:38:43;99572.94;;;3.98;100.00
78584;BME280;67880;46.082;18.234;2023-12-20T01:39:15;99574.75;;;3.98;100.00
78584;BME280;67880;46.082;18.234;2023-12-20T01:39:58;99569.44;;;3.98;100.00
78584;BME280;67880;46.082;18.234;2023-12-20T01:40:31;99570.19;;;4.00;100.00
78584;BME280;67880;46.082;18.234;2023-12-20T01:41:06;99572.94;;;3.98;100.00
78584;BME280;67880;46.082;18.234;2023-12-20T01:41:43;99564.97;;;3.98;100.00
78584;BME280;67880;46.082;18.234;2023-12-20T01:42:15;99565.72;;;4.00;100.00
78584;BME280;67880;46.082;18.234;2023-12-20T01:42:47;99571.00;;;4.00;100.00
78584;BME280;67880;46.082;18.234;2023-12-20T01:43:19;99569.34;;;3.99;100.00
78584;BME280;67880;46.082;18.234;2023-12-20T01:43:57;99568.47;;;3.99;100.00
78584;BME280;67880;46.082;18.234;2023-12-20T01:44:30;99571.13;;;3.99;100.00
78584;BME280;67880;46.082;18.234;2023-12-20T01:45:03;99566.78;;;3.98;100.00
78584;BME280;67880;46.082;18.234;2023-12-20T01:45:35;99566.19;;;3.94;100.00
78584;BME280;67880;46.082;18.234;2023-12-20T01:46:08;99562.91;;;3.91;100.00
78584;BME280;67880;46.082;18.234;2023-12-20T01:46:43;99561.94;;;3.92;100.00
78584;BME280;67880;46.082;18.234;2023-12-20T01:47:15;99566.53;;;3.90;100.00
78584;BME280;67880;46.082;18.234;2023-12-20T01:47:47;99559.75;;;3.86;100.00
78584;BME280;67880;46.082;18.234;2023-12-20T01:48:19;99567.00;;;3.84;100.00
78584;BME280;67880;46.082;18.234;2023-12-20T01:48:54;99563.25;;;3.86;100.00
78584;BME280;67880;46.082;18.234;2023-12-20T01:49:59;99560.38;;;3.89;100.00
78584;BME280;67880;46.082;18.234;2023-12-20T01:50:33;99556.88;;;3.89;100.00
78584;BME280;67880;46.082;18.234;2023-12-20T01:51:09;99555.91;;;3.90;100.00
78584;BME280;67880;46.082;18.234;2023-12-20T01:51:45;99554.22;;;3.89;100.00
78584;BME280;67880;46.082;18.234;2023-12-20T01:52:19;99554.09;;;3.90;100.00
78584;BME280;67880;46.082;18.234;2023-12-20T01:52:54;99551.31;;;3.92;100.00
78584;BME280;67880;46.082;18.234;2023-12-20T01:53:29;99553.00;;;3.93;100.00
78584;BME280;67880;46.082;18.234;2023-12-20T01:54:01;99546.13;;;3.90;100.00
78584;BME280;67880;46.082;18.234;2023-12-20T01:55:10;99551.44;;;3.90;100.00
78584;BME280;67880;46.082;18.234;2023-12-20T01:55:48;99543.59;;;3.89;100.00
78584;BME280;67880;46.082;18.234;2023-12-20T01:56:22;99539.00;;;3.91;100.00
78584;BME280;67880;46.082;18.234;2023-12-20T01:56:55;99550.34;;;3.93;100.00
78584;BME280;67880;46.082;18.234;2023-12-20T01:57:27;99538.28;;;3.89;100.00
78584;BME280;67880;46.082;18.234;2023-12-20T01:58:01;99543.59;;;3.89;100.00
78584;BME280;67880;46.082;18.234;2023-12-20T01:58:35;99541.06;;;3.87;100.00
78584;BME280;67880;46.082;18.234;2023-12-20T01:59:10;99542.13;;;3.85;100.00
78584;BME280;67880;46.082;18.234;2023-12-20T01:59:44;99538.91;;;3.81;100.00
78584;BME280;67880;46.082;18.234;2023-12-20T02:00:17;99535.50;;;3.79;100.00
78584;BME280;67880;46.082;18.234;2023-12-20T02:00:51;99534.44;;;3.82;100.00
78584;BME280;67880;46.082;18.234;2023-12-20T02:01:28;99537.94;;;3.82;100.00
78584;BME280;67880;46.082;18.234;2023-12-20T02:02:03;99535.28;;;3.82;100.00
78584;BME280;67880;46.082;18.234;2023-12-20T02:02:39;99530.81;;;3.83;100.00
78584;BME280;67880;46.082;18.234;2023-12-20T02:03:12;99535.00;;;3.85;100.00
78584;BME280;67880;46.082;18.234;2023-12-20T02:03:49;99531.66;;;3.83;100.00
78584;BME280;67880;46.082;18.234;2023-12-20T02:04:22;99534.44;;;3.82;100.00
78584;BME280;67880;46.082;18.234;2023-12-20T02:04:54;99531.66;;;3.83;100.00
78584;BME280;67880;46.082;18.234;2023-12-20T02:05:27;99523.94;;;3.80;100.00
78584;BME280;67880;46.082;18.234;2023-12-20T02:06:00;99524.66;;;3.82;100.00
78584;BME280;67880;46.082;18.234;2023-12-20T02:06:35;99529.00;;;3.83;100.00
78584;BME280;67880;46.082;18.234;2023-12-20T02:07:08;99529.00;;;3.83;100.00
78584;BME280;67880;46.082;18.234;2023-12-20T02:07:41;99534.91;;;3.87;100.00
78584;BME280;67880;46.082;18.234;2023-12-20T02:08:16;99520.31;;;3.81;100.00
78584;BME280;67880;46.082;18.234;2023-12-20T02:08:50;99525.63;;;3.81;100.00
78584;BME280;67880;46.082;18.234;2023-12-20T02:09:22;99529.84;;;3.84;100.00
78584;BME280;67880;46.082;18.234;2023-12-20T02:09:55;99528.28;;;3.81;100.00
78584;BME280;67880;46.082;18.234;2023-12-20T02:10:28;99525.63;;;3.81;100.00
78584;BME280;67880;46.082;18.234;2023-12-20T02:11:01;99526.59;;;3.80;100.00
78584;BME280;67880;46.082;18.234;2023-12-20T02:11:36;99524.88;;;3.79;100.00
78584;BME280;67880;46.082;18.234;2023-12-20T02:12:08;99523.94;;;3.80;100.00
78584;BME280;67880;46.082;18.234;2023-12-20T02:12:43;99525.00;;;3.77;100.00
78584;BME280;67880;46.082;18.234;2023-12-20T02:13:17;99520.53;;;3.78;100.00
78584;BME280;67880;46.082;18.234;2023-12-20T02:13:51;99513.66;;;3.75;100.00
78584;BME280;67880;46.082;18.234;2023-12-20T02:14:25;99523.44;;;3.75;100.00
78584;BME280;67880;46.082;18.234;2023-12-20T02:14:58;99519.09;;;3.74;100.00
78584;BME280;67880;46.082;18.234;2023-12-20T02:15:33;99519.81;;;3.76;100.00
78584;BME280;67880;46.082;18.234;2023-12-20T02:16:05;99512.81;;;3.75;100.00
78584;BME280;67880;46.082;18.234;2023-12-20T02:16:42;99511.22;;;3.72;100.00
78584;BME280;67880;46.082;18.234;2023-12-20T02:17:15;99513.16;;;3.70;100.00
78584;BME280;67880;46.082;18.234;2023-12-20T02:17:48;99517.28;;;3.74;100.00
78584;BME280;67880;46.082;18.234;2023-12-20T02:18:21;99507.72;;;3.72;100.00
78584;BME280;67880;46.082;18.234;2023-12-20T02:18:53;99510.16;;;3.75;100.00
78584;BME280;67880;46.082;18.234;2023-12-20T02:19:25;99516.31;;;3.75;100.00
78584;BME280;67880;46.082;18.234;2023-12-20T02:20:02;99515.47;;;3.75;100.00
78584;BME280;67880;46.082;18.234;2023-12-20T02:20:38;99508.56;;;3.72;100.00
78584;BME280;67880;46.082;18.234;2023-12-20T02:21:10;99509.41;;;3.73;100.00
78584;BME280;67880;46.082;18.234;2023-12-20T02:21:42;99510.16;;;3.75;100.00
78584;BME280;67880;46.082;18.234;2023-12-20T02:22:14;99511.13;;;3.74;100.00
78584;BME280;67880;46.082;18.234;2023-12-20T02:22:47;99511.97;;;3.74;100.00
78584;BME280;67880;46.082;18.234;2023-12-20T02:23:19;99508.47;;;3.74;100.00
78584;BME280;67880;46.082;18.234;2023-12-20T02:23:53;99518.13;;;3.75;100.00
78584;BME280;67880;46.082;18.234;2023-12-20T02:24:25;99512.91;;;3.73;100.00
78584;BME280;67880;46.082;18.234;2023-12-20T02:24:57;99515.47;;;3.75;100.00
78584;BME280;67880;46.082;18.234;2023-12-20T02:25:35;99508.69;;;3.71;100.00
78584;BME280;67880;46.082;18.234;2023-12-20T02:26:07;99510.63;;;3.69;100.00
78584;BME280;67880;46.082;18.234;2023-12-20T02:26:40;99513.03;;;3.72;100.00
78584;BME280;67880;46.082;18.234;2023-12-20T02:27:19;99508.84;;;3.69;100.00
78584;BME280;67880;46.082;18.234;2023-12-20T02:27:52;99507.25;;;3.67;100.00
78584;BME280;67880;46.082;18.234;2023-12-20T02:28:26;99506.03;;;3.71;100.00
78584;BME280;67880;46.082;18.234;2023-12-20T02:29:02;99501.84;;;3.68;100.00
78584;BME280;67880;46.082;18.234;2023-12-20T02:29:35;99505.34;;;3.69;100.00
78584;BME280;67880;46.082;18.234;2023-12-20T02:30:08;99500.88;;;3.69;100.00
78584;BME280;67880;46.082;18.234;2023-12-20T02:30:40;99499.28;;;3.67;100.00
78584;BME280;67880;46.082;18.234;2023-12-20T02:31:13;99495.91;;;3.65;100.00
78584;BME280;67880;46.082;18.234;2023-12-20T02:31:45;99501.94;;;3.67;100.00
78584;BME280;67880;46.082;18.234;2023-12-20T02:32:21;99494.84;;;3.67;100.00
78584;BME280;67880;46.082;18.234;2023-12-20T02:32:59;99492.28;;;3.66;100.00
78584;BME280;67880;46.082;18.234;2023-12-20T02:33:32;99495.06;;;3.64;100.00
78584;BME280;67880;46.082;18.234;2023-12-20T02:34:05;99489.25;;;3.59;100.00
78584;BME280;67880;46.082;18.234;2023-12-20T02:34:37;99497.13;;;3.61;100.00
78584;BME280;67880;46.082;18.234;2023-12-20T02:35:09;99495.53;;;3.58;100.00
78584;BME280;67880;46.082;18.234;2023-12-20T02:35:43;99494.47;;;3.61;100.00
78584;BME280;67880;46.082;18.234;2023-12-20T02:36:19;99499.41;;;3.65;100.00
78584;BME280;67880;46.082;18.234;2023-12-20T02:36:54;99499.41;;;3.65;100.00
78584;BME280;67880;46.082;18.234;2023-12-20T02:37:29;99492.41;;;3.64;100.00
78584;BME280;67880;46.082;18.234;2023-12-20T02:38:02;99488.66;;;3.67;100.00
78584;BME280;67880;46.082;18.234;2023-12-20T02:38:34;99501.00;;;3.68;100.00
78584;BME280;67880;46.082;18.234;2023-12-20T02:39:06;99497.50;;;3.67;100.00
78584;BME280;67880;46.082;18.234;2023-12-20T02:39:38;99493.13;;;3.66;100.00
78584;BME280;67880;46.082;18.234;2023-12-20T02:40:10;99496.63;;;3.67;100.00
78584;BME280;67880;46.082;18.234;2023-12-20T02:40:43;99497.50;;;3.67;100.00
78584;BME280;67880;46.082;18.234;2023-12-20T02:41:20;99493.88;;;3.68;100.00
78584;BME280;67880;46.082;18.234;2023-12-20T02:41:52;99490.47;;;3.66;100.00
78584;BME280;67880;46.082;18.234;2023-12-20T02:42:24;99490.72;;;3.63;100.00
78584;BME280;67880;46.082;18.234;2023-12-20T02:42:56;99476.47;;;3.64;100.00
78584;BME280;67880;46.082;18.234;2023-12-20T02:43:32;99485.16;;;3.66;100.00
78584;BME280;67880;46.082;18.234;2023-12-20T02:44:04;99485.06;;;3.68;100.00
78584;BME280;67880;46.082;18.234;2023-12-20T02:44:36;99485.06;;;3.68;100.00
78584;BME280;67880;46.082;18.234;2023-12-20T02:45:09;99477.31;;;3.65;100.00
78584;BME280;67880;46.082;18.234;2023-12-20T02:45:41;99474.66;;;3.65;100.00
78584;BME280;67880;46.082;18.234;2023-12-20T02:46:15;99486.13;;;3.65;100.00
78584;BME280;67880;46.082;18.234;2023-12-20T02:46:48;99485.41;;;3.63;100.00
78584;BME280;67880;46.082;18.234;2023-12-20T02:47:20;99479.25;;;3.63;100.00
78584;BME280;67880;46.082;18.234;2023-12-20T02:47:53;99484.56;;;3.63;100.00
78584;BME280;67880;46.082;18.234;2023-12-20T02:48:25;99480.09;;;3.63;100.00
78584;BME280;67880;46.082;18.234;2023-12-20T02:48:57;99479.25;;;3.63;100.00
78584;BME280;67880;46.082;18.234;2023-12-20T02:49:32;99469.63;;;3.62;100.00
78584;BME280;67880;46.082;18.234;2023-12-20T02:50:07;99474.94;;;3.62;100.00
78584;BME280;67880;46.082;18.234;2023-12-20T02:50:40;99469.72;;;3.60;100.00
78584;BME280;67880;46.082;18.234;2023-12-20T02:51:12;99465.28;;;3.61;100.00
78584;BME280;67880;46.082;18.234;2023-12-20T02:51:44;99474.66;;;3.65;100.00
78584;BME280;67880;46.082;18.234;2023-12-20T02:52:16;99472.00;;;3.65;100.00
78584;BME280;67880;46.082;18.234;2023-12-20T02:52:48;99466.13;;;3.61;100.00
78584;BME280;67880;46.082;18.234;2023-12-20T02:53:20;99470.59;;;3.61;100.00
78584;BME280;67880;46.082;18.234;2023-12-20T02:53:52;99459.00;;;3.62;100.00
78584;BME280;67880;46.082;18.234;2023-12-20T02:54:25;99468.66;;;3.63;100.00
78584;BME280;67880;46.082;18.234;2023-12-20T02:54:57;99466.84;;;3.63;100.00
78584;BME280;67880;46.082;18.234;2023-12-20T02:55:29;99461.53;;;3.63;100.00
78584;BME280;67880;46.082;18.234;2023-12-20T02:56:04;99466.56;;;3.66;100.00
78584;BME280;67880;46.082;18.234;2023-12-20T02:56:36;99467.41;;;3.67;100.00
78584;BME280;67880;46.082;18.234;2023-12-20T02:57:08;99466.56;;;3.66;100.00
78584;BME280;67880;46.082;18.234;2023-12-20T02:57:40;99471.88;;;3.66;100.00